sensor_id;sensor_type;location;lat;lon;timestamp;P1;durP1;ratioP1;P2;durP2;ratioP2
23866;SDS011;12114;53.404;-1.502;2023-09-19T00:02:07;5.25;;;1.30;;
23866;SDS011;12114;53.404;-1.502;2023-09-19T00:04:52;7.60;;;1.40;;
23866;SDS011;12114;53.404;-1.502;2023-09-19T00:07:37;10.02;;;1.90;;
23866;SDS011;12114;53.404;-1.502;2023-09-19T00:10:21;12.63;;;1.83;;
23866;SDS011;12114;53.404;-1.502;2023-09-19T00:13:08;6.70;;;1.40;;
23866;SDS011;12114;53.404;-1.502;2023-09-19T00:15:56;8.00;;;1.50;;
23866;SDS011;12114;53.404;-1.502;2023-09-19T00:18:42;6.85;;;1.20;;
23866;SDS011;12114;53.404;-1.502;2023-09-19T00:21:26;9.10;;;1.50;;
23866;SDS011;12114;53.404;-1.502;2023-09-19T00:24:10;9.80;;;1.55;;
23866;SDS011;12114;53.404;-1.502;2023-09-19T00:26:55;10.57;;;1.58;;
23866;SDS011;12114;53.404;-1.502;2023-09-19T00:29:39;11.70;;;2.28;;
23866;SDS011;12114;53.404;-1.502;2023-09-19T00:32:23;14.63;;;1.83;;
23866;SDS011;12114;53.404;-1.502;2023-09-19T00:35:07;7.35;;;1.38;;
23866;SDS011;12114;53.404;-1.502;2023-09-19T00:37:54;11.90;;;1.38;;
23866;SDS011;12114;53.404;-1.502;2023-09-19T00:40:39;9.90;;;1.85;;
23866;SDS011;12114;53.404;-1.502;2023-09-19T00:43:26;7.50;;;1.10;;
23866;SDS011;12114;53.404;-1.502;2023-09-19T00:46:11;8.00;;;1.50;;
23866;SDS011;12114;53.404;-1.502;2023-09-19T00:48:55;9.10;;;2.00;;
23866;SDS011;12114;53.404;-1.502;2023-09-19T00:51:40;9.48;;;1.50;;
23866;SDS011;12114;53.404;-1.502;2023-09-19T00:54:29;9.48;;;1.58;;
23866;SDS011;12114;53.404;-1.502;2023-09-19T00:57:13;9.20;;;2.38;;
23866;SDS011;12114;53.404;-1.502;2023-09-19T00:59:58;8.45;;;1.33;;
23866;SDS011;12114;53.404;-1.502;2023-09-19T01:02:43;12.57;;;2.20;;
23866;SDS011;12114;53.404;-1.502;2023-09-19T01:05:27;6.60;;;1.95;;
23866;SDS011;12114;53.404;-1.502;2023-09-19T01:08:11;11.00;;;2.10;;
23866;SDS011;12114;53.404;-1.502;2023-09-19T01:11:08;10.15;;;1.85;;
23866;SDS011;12114;53.404;-1.502;2023-09-19T01:14:09;10.70;;;1.98;;
23866;SDS011;12114;53.404;-1.502;2023-09-19T01:17:04;10.57;;;2.10;;
23866;SDS011;12114;53.404;-1.502;2023-09-19T01:22:40;14.55;;;2.42;;
23866;SDS011;12114;53.404;-1.502;2023-09-19T01:25:42;8.15;;;1.48;;
23866;SDS011;12114;53.404;-1.502;2023-09-19T01:28:34;8.43;;;1.85;;
23866;SDS011;12114;53.404;-1.502;2023-09-19T01:31:24;17.17;;;2.63;;
23866;SDS011;12114;53.404;-1.502;2023-09-19T01:34:12;9.63;;;1.42;;
23866;SDS011;12114;53.404;-1.502;2023-09-19T01:36:56;9.60;;;2.00;;
23866;SDS011;12114;53.404;-1.502;2023-09-19T01:39:40;11.60;;;2.17;;
23866;SDS011;12114;53.404;-1.502;2023-09-19T01:42:31;14.20;;;1.70;;
23866;SDS011;12114;53.404;-1.502;2023-09-19T01:48:11;12.17;;;1.87;;
23866;SDS011;12114;53.404;-1.502;2023-09-19T01:51:00;11.50;;;2.08;;
23866;SDS011;12114;53.404;-1.502;2023-09-19T01:53:50;11.82;;;2.10;;
23866;SDS011;12114;53.404;-1.502;2023-09-19T01:59:31;14.65;;;2.45;;
23866;SDS011;12114;53.404;-1.502;2023-09-19T02:02:17;14.63;;;2.80;;
23866;SDS011;12114;53.404;-1.502;2023-09-19T02:05:01;16.15;;;2.40;;
23866;SDS011;12114;53.404;-1.502;2023-09-19T02:07:45;16.75;;;2.28;;
23866;SDS011;12114;53.404;-1.502;2023-09-19T02:10:29;13.52;;;2.63;;
23866;SDS011;12114;53.404;-1.502;2023-09-19T02:13:13;13.10;;;2.45;;
23866;SDS011;12114;53.404;-1.502;2023-09-19T02:15:57;12.07;;;2.38;;
23866;SDS011;12114;53.404;-1.502;2023-09-19T02:21:29;18.33;;;2.67;;
23866;SDS011;12114;53.404;-1.502;2023-09-19T02:24:13;10.93;;;2.35;;
23866;SDS011;12114;53.404;-1.502;2023-09-19T02:26:59;14.70;;;2.92;;
23866;SDS011;12114;53.404;-1.502;2023-09-19T02:29:47;16.85;;;2.65;;
23866;SDS011;12114;53.404;-1.502;2023-09-19T02:35:20;18.08;;;3.67;;
23866;SDS011;12114;53.404;-1.502;2023-09-19T02:38:04;13.82;;;2.67;;
23866;SDS011;12114;53.404;-1.502;2023-09-19T02:40:50;15.55;;;3.03;;
23866;SDS011;12114;53.404;-1.502;2023-09-19T02:43:34;16.90;;;2.95;;
23866;SDS011;12114;53.404;-1.502;2023-09-19T02:46:19;15.10;;;2.23;;
23866;SDS011;12114;53.404;-1.502;2023-09-19T02:49:03;12.38;;;2.20;;
23866;SDS011;12114;53.404;-1.502;2023-09-19T02:51:50;19.77;;;3.30;;
23866;SDS011;12114;53.404;-1.502;2023-09-19T02:54:35;16.05;;;2.97;;
23866;SDS011;12114;53.404;-1.502;2023-09-19T02:57:19;16.42;;;2.70;;
23866;SDS011;12114;53.404;-1.502;2023-09-19T03:00:03;22.20;;;3.10;;
23866;SDS011;12114;53.404;-1.502;2023-09-19T03:02:48;18.70;;;3.27;;
23866;SDS011;12114;53.404;-1.502;2023-09-19T03:05:32;17.95;;;3.10;;
23866;SDS011;12114;53.404;-1.502;2023-09-19T03:08:16;22.35;;;3.28;;
23866;SDS011;12114;53.404;-1.502;2023-09-19T03:11:00;16.70;;;2.75;;
23866;SDS011;12114;53.404;-1.502;2023-09-19T03:13:46;15.25;;;2.92;;
23866;SDS011;12114;53.404;-1.502;2023-09-19T03:16:31;17.08;;;2.83;;
23866;SDS011;12114;53.404;-1.502;2023-09-19T03:19:15;13.98;;;2.55;;
23866;SDS011;12114;53.404;-1.502;2023-09-19T03:21:59;13.82;;;2.85;;
23866;SDS011;12114;53.404;-1.502;2023-09-19T03:24:43;18.23;;;3.38;;
23866;SDS011;12114;53.404;-1.502;2023-09-19T03:27:27;16.00;;;2.58;;
23866;SDS011;12114;53.404;-1.502;2023-09-19T03:30:11;25.42;;;3.97;;
23866;SDS011;12114;53.404;-1.502;2023-09-19T03:32:56;15.40;;;2.55;;
23866;SDS011;12114;53.404;-1.502;2023-09-19T03:35:40;16.35;;;2.85;;
23866;SDS011;12114;53.404;-1.502;2023-09-19T03:38:27;21.35;;;3.00;;
23866;SDS011;12114;53.404;-1.502;2023-09-19T03:41:14;16.27;;;3.13;;
23866;SDS011;12114;53.404;-1.502;2023-09-19T03:44:01;14.95;;;3.25;;
23866;SDS011;12114;53.404;-1.502;2023-09-19T03:46:45;14.07;;;2.55;;
23866;SDS011;12114;53.404;-1.502;2023-09-19T03:49:29;15.02;;;2.58;;
23866;SDS011;12114;53.404;-1.502;2023-09-19T03:52:13;21.05;;;3.47;;
23866;SDS011;12114;53.404;-1.502;2023-09-19T03:54:59;16.90;;;2.95;;
23866;SDS011;12114;53.404;-1.502;2023-09-19T03:57:47;17.67;;;3.27;;
23866;SDS011;12114;53.404;-1.502;2023-09-19T04:00:31;18.90;;;2.83;;
23866;SDS011;12114;53.404;-1.502;2023-09-19T04:03:15;10.95;;;2.35;;
23866;SDS011;12114;53.404;-1.502;2023-09-19T04:06:04;16.83;;;2.58;;
23866;SDS011;12114;53.404;-1.502;2023-09-19T04:08:48;9.68;;;2.70;;
23866;SDS011;12114;53.404;-1.502;2023-09-19T04:11:32;24.02;;;2.95;;
23866;SDS011;12114;53.404;-1.502;2023-09-19T04:14:17;13.30;;;3.20;;
23866;SDS011;12114;53.404;-1.502;2023-09-19T04:17:01;12.13;;;2.63;;
23866;SDS011;12114;53.404;-1.502;2023-09-19T04:19:45;14.23;;;2.70;;
23866;SDS011;12114;53.404;-1.502;2023-09-19T04:22:29;12.60;;;2.90;;
23866;SDS011;12114;53.404;-1.502;2023-09-19T04:25:13;16.10;;;2.60;;
23866;SDS011;12114;53.404;-1.502;2023-09-19T04:27:56;22.48;;;3.28;;
23866;SDS011;12114;53.404;-1.502;2023-09-19T04:30:41;13.73;;;2.60;;
23866;SDS011;12114;53.404;-1.502;2023-09-19T04:33:25;10.95;;;2.83;;
23866;SDS011;12114;53.404;-1.502;2023-09-19T04:36:10;12.93;;;2.25;;
23866;SDS011;12114;53.404;-1.502;2023-09-19T04:38:54;14.02;;;3.08;;
23866;SDS011;12114;53.404;-1.502;2023-09-19T04:41:38;12.45;;;2.85;;
23866;SDS011;12114;53.404;-1.502;2023-09-19T04:44:24;9.68;;;1.98;;
23866;SDS011;12114;53.404;-1.502;2023-09-19T04:47:08;10.98;;;2.30;;
23866;SDS011;12114;53.404;-1.502;2023-09-19T04:49:52;11.02;;;1.98;;
23866;SDS011;12114;53.404;-1.502;2023-09-19T04:52:36;10.50;;;2.70;;
23866;SDS011;12114;53.404;-1.502;2023-09-19T04:55:20;12.77;;;2.50;;
23866;SDS011;12114;53.404;-1.502;2023-09-19T04:58:04;9.88;;;2.35;;
23866;SDS011;12114;53.404;-1.502;2023-09-19T05:00:48;12.85;;;2.67;;
23866;SDS011;12114;53.404;-1.502;2023-09-19T05:03:34;10.98;;;2.35;;
23866;SDS011;12114;53.404;-1.502;2023-09-19T05:06:19;12.73;;;2.47;;
23866;SDS011;12114;53.404;-1.502;2023-09-19T05:09:05;15.15;;;2.95;;
23866;SDS011;12114;53.404;-1.502;2023-09-19T05:11:49;12.48;;;2.67;;
23866;SDS011;12114;53.404;-1.502;2023-09-19T05:14:35;13.35;;;2.50;;
23866;SDS011;12114;53.404;-1.502;2023-09-19T05:17:18;12.80;;;2.35;;
23866;SDS011;12114;53.404;-1.502;2023-09-19T05:20:03;16.95;;;2.67;;
23866;SDS011;12114;53.404;-1.502;2023-09-19T05:23:02;16.90;;;2.88;;
23866;SDS011;12114;53.404;-1.502;2023-09-19T05:25:46;12.63;;;2.20;;
23866;SDS011;12114;53.404;-1.502;2023-09-19T05:28:30;15.43;;;2.50;;
23866;SDS011;12114;53.404;-1.502;2023-09-19T05:31:16;17.88;;;2.80;;
23866;SDS011;12114;53.404;-1.502;2023-09-19T05:34:01;11.05;;;2.25;;
23866;SDS011;12114;53.404;-1.502;2023-09-19T05:36:45;12.32;;;2.67;;
23866;SDS011;12114;53.404;-1.502;2023-09-19T05:39:29;12.93;;;2.50;;
23866;SDS011;12114;53.404;-1.502;2023-09-19T05:42:13;15.75;;;2.95;;
23866;SDS011;12114;53.404;-1.502;2023-09-19T05:44:57;11.00;;;2.50;;
23866;SDS011;12114;53.404;-1.502;2023-09-19T05:47:42;14.25;;;2.50;;
23866;SDS011;12114;53.404;-1.502;2023-09-19T05:50:30;10.63;;;2.13;;
23866;SDS011;12114;53.404;-1.502;2023-09-19T05:53:15;9.77;;;2.00;;
23866;SDS011;12114;53.404;-1.502;2023-09-19T05:55:59;9.68;;;1.83;;
23866;SDS011;12114;53.404;-1.502;2023-09-19T05:58:44;9.45;;;2.03;;
23866;SDS011;12114;53.404;-1.502;2023-09-19T06:01:28;6.15;;;1.80;;
23866;SDS011;12114;53.404;-1.502;2023-09-19T06:04:12;10.32;;;2.58;;
23866;SDS011;12114;53.404;-1.502;2023-09-19T06:06:57;7.00;;;1.90;;
23866;SDS011;12114;53.404;-1.502;2023-09-19T06:09:42;6.53;;;1.80;;
23866;SDS011;12114;53.404;-1.502;2023-09-19T06:12:26;8.57;;;2.10;;
23866;SDS011;12114;53.404;-1.502;2023-09-19T06:15:10;8.38;;;2.20;;
23866;SDS011;12114;53.404;-1.502;2023-09-19T06:17:59;14.00;;;2.50;;
23866;SDS011;12114;53.404;-1.502;2023-09-19T06:20:48;11.30;;;1.98;;
23866;SDS011;12114;53.404;-1.502;2023-09-19T06:23:34;9.55;;;1.90;;
23866;SDS011;12114;53.404;-1.502;2023-09-19T06:26:19;9.63;;;2.00;;
23866;SDS011;12114;53.404;-1.502;2023-09-19T06:29:03;7.55;;;1.80;;
23866;SDS011;12114;53.404;-1.502;2023-09-19T06:31:47;8.27;;;1.95;;
23866;SDS011;12114;53.404;-1.502;2023-09-19T06:34:32;6.80;;;1.60;;
23866;SDS011;12114;53.404;-1.502;2023-09-19T06:37:16;7.70;;;1.52;;
23866;SDS011;12114;53.404;-1.502;2023-09-19T06:40:00;4.80;;;1.45;;
23866;SDS011;12114;53.404;-1.502;2023-09-19T06:42:45;6.07;;;1.73;;
23866;SDS011;12114;53.404;-1.502;2023-09-19T06:45:30;5.45;;;1.67;;
23866;SDS011;12114;53.404;-1.502;2023-09-19T06:48:15;9.00;;;1.50;;
23866;SDS011;12114;53.404;-1.502;2023-09-19T06:50:59;4.43;;;1.70;;
23866;SDS011;12114;53.404;-1.502;2023-09-19T06:53:45;6.72;;;1.60;;
23866;SDS011;12114;53.404;-1.502;2023-09-19T06:56:29;6.32;;;1.88;;
23866;SDS011;12114;53.404;-1.502;2023-09-19T06:59:13;7.90;;;1.83;;
23866;SDS011;12114;53.404;-1.502;2023-09-19T07:01:58;9.67;;;2.10;;
23866;SDS011;12114;53.404;-1.502;2023-09-19T07:04:43;7.30;;;1.90;;
23866;SDS011;12114;53.404;-1.502;2023-09-19T07:07:27;10.63;;;2.47;;
23866;SDS011;12114;53.404;-1.502;2023-09-19T07:10:11;10.20;;;2.50;;
23866;SDS011;12114;53.404;-1.502;2023-09-19T07:12:57;9.17;;;2.33;;
23866;SDS011;12114;53.404;-1.502;2023-09-19T07:15:44;8.45;;;2.20;;
23866;SDS011;12114;53.404;-1.502;2023-09-19T07:18:31;11.35;;;2.83;;
23866;SDS011;12114;53.404;-1.502;2023-09-19T07:21:15;7.85;;;2.53;;
23866;SDS011;12114;53.404;-1.502;2023-09-19T07:24:00;9.82;;;2.80;;
23866;SDS011;12114;53.404;-1.502;2023-09-19T07:26:45;11.27;;;2.33;;
23866;SDS011;12114;53.404;-1.502;2023-09-19T07:29:29;12.27;;;3.28;;
23866;SDS011;12114;53.404;-1.502;2023-09-19T07:32:13;10.32;;;2.88;;
23866;SDS011;12114;53.404;-1.502;2023-09-19T07:34:57;6.78;;;2.80;;
23866;SDS011;12114;53.404;-1.502;2023-09-19T07:37:41;9.95;;;2.80;;
23866;SDS011;12114;53.404;-1.502;2023-09-19T07:40:25;6.15;;;2.50;;
23866;SDS011;12114;53.404;-1.502;2023-09-19T07:43:10;7.37;;;2.57;;
23866;SDS011;12114;53.404;-1.502;2023-09-19T07:45:54;9.15;;;2.60;;
23866;SDS011;12114;53.404;-1.502;2023-09-19T07:48:38;8.02;;;2.35;;
23866;SDS011;12114;53.404;-1.502;2023-09-19T07:51:22;11.52;;;2.97;;
23866;SDS011;12114;53.404;-1.502;2023-09-19T07:54:06;9.40;;;3.10;;
23866;SDS011;12114;53.404;-1.502;2023-09-19T07:56:50;9.07;;;2.78;;
23866;SDS011;12114;53.404;-1.502;2023-09-19T07:59:34;9.02;;;2.42;;
23866;SDS011;12114;53.404;-1.502;2023-09-19T08:02:18;10.77;;;3.10;;
23866;SDS011;12114;53.404;-1.502;2023-09-19T08:05:01;7.40;;;1.83;;
23866;SDS011;12114;53.404;-1.502;2023-09-19T08:07:49;8.20;;;2.67;;
23866;SDS011;12114;53.404;-1.502;2023-09-19T08:10:33;7.30;;;2.30;;
23866;SDS011;12114;53.404;-1.502;2023-09-19T08:13:19;4.18;;;1.85;;
23866;SDS011;12114;53.404;-1.502;2023-09-19T08:16:05;6.50;;;1.60;;
23866;SDS011;12114;53.404;-1.502;2023-09-19T08:18:49;7.38;;;1.80;;
23866;SDS011;12114;53.404;-1.502;2023-09-19T08:21:36;4.25;;;1.77;;
23866;SDS011;12114;53.404;-1.502;2023-09-19T08:24:20;7.45;;;1.90;;
23866;SDS011;12114;53.404;-1.502;2023-09-19T08:27:04;8.15;;;2.00;;
23866;SDS011;12114;53.404;-1.502;2023-09-19T08:29:49;6.03;;;1.92;;
23866;SDS011;12114;53.404;-1.502;2023-09-19T08:32:35;6.85;;;2.40;;
23866;SDS011;12114;53.404;-1.502;2023-09-19T08:35:19;4.78;;;1.60;;
23866;SDS011;12114;53.404;-1.502;2023-09-19T08:38:03;6.22;;;2.10;;
23866;SDS011;12114;53.404;-1.502;2023-09-19T08:40:48;5.28;;;2.08;;
23866;SDS011;12114;53.404;-1.502;2023-09-19T08:43:32;5.63;;;1.30;;
23866;SDS011;12114;53.404;-1.502;2023-09-19T08:46:17;4.57;;;1.40;;
23866;SDS011;12114;53.404;-1.502;2023-09-19T08:51:46;4.00;;;1.30;;
23866;SDS011;12114;53.404;-1.502;2023-09-19T08:54:35;2.53;;;1.23;;
23866;SDS011;12114;53.404;-1.502;2023-09-19T08:57:23;3.22;;;1.23;;
23866;SDS011;12114;53.404;-1.502;2023-09-19T09:00:08;5.70;;;1.08;;
23866;SDS011;12114;53.404;-1.502;2023-09-19T09:02:56;5.30;;;1.25;;
23866;SDS011;12114;53.404;-1.502;2023-09-19T09:05:41;4.57;;;1.00;;
23866;SDS011;12114;53.404;-1.502;2023-09-19T09:08:27;3.65;;;1.10;;
23866;SDS011;12114;53.404;-1.502;2023-09-19T09:11:12;4.43;;;1.15;;
23866;SDS011;12114;53.404;-1.502;2023-09-19T09:13:56;3.95;;;0.93;;
23866;SDS011;12114;53.404;-1.502;2023-09-19T09:16:41;4.13;;;1.20;;
23866;SDS011;12114;53.404;-1.502;2023-09-19T09:19:25;3.70;;;1.00;;
23866;SDS011;12114;53.404;-1.502;2023-09-19T09:22:09;2.28;;;0.90;;
23866;SDS011;12114;53.404;-1.502;2023-09-19T09:24:54;3.20;;;0.93;;
23866;SDS011;12114;53.404;-1.502;2023-09-19T09:27:41;3.15;;;0.90;;
23866;SDS011;12114;53.404;-1.502;2023-09-19T09:30:34;2.85;;;0.90;;
23866;SDS011;12114;53.404;-1.502;2023-09-19T09:33:18;1.92;;;0.80;;
23866;SDS011;12114;53.404;-1.502;2023-09-19T09:36:02;2.30;;;0.70;;
23866;SDS011;12114;53.404;-1.502;2023-09-19T09:38:47;1.60;;;0.60;;
23866;SDS011;12114;53.404;-1.502;2023-09-19T09:41:36;3.13;;;0.60;;
23866;SDS011;12114;53.404;-1.502;2023-09-19T09:44:21;1.65;;;0.60;;
23866;SDS011;12114;53.404;-1.502;2023-09-19T09:47:05;1.08;;;0.40;;
23866;SDS011;12114;53.404;-1.502;2023-09-19T09:50:08;1.83;;;0.50;;
23866;SDS011;12114;53.404;-1.502;2023-09-19T09:53:01;2.55;;;0.60;;
23866;SDS011;12114;53.404;-1.502;2023-09-19T09:56:06;2.45;;;0.50;;
23866;SDS011;12114;53.404;-1.502;2023-09-19T09:58:51;1.13;;;0.40;;
23866;SDS011;12114;53.404;-1.502;2023-09-19T10:01:46;1.20;;;0.35;;
23866;SDS011;12114;53.404;-1.502;2023-09-19T10:04:30;2.28;;;0.20;;
23866;SDS011;12114;53.404;-1.502;2023-09-19T10:07:26;1.70;;;0.30;;
23866;SDS011;12114;53.404;-1.502;2023-09-19T10:10:35;2.65;;;0.10;;
23866;SDS011;12114;53.404;-1.502;2023-09-19T10:13:37;0.75;;;0.10;;
23866;SDS011;12114;53.404;-1.502;2023-09-19T10:16:22;1.08;;;0.20;;
23866;SDS011;12114;53.404;-1.502;2023-09-19T10:19:08;2.55;;;0.20;;
23866;SDS011;12114;53.404;-1.502;2023-09-19T10:21:55;0.93;;;0.10;;
23866;SDS011;12114;53.404;-1.502;2023-09-19T10:24:42;2.10;;;0.17;;
23866;SDS011;12114;53.404;-1.502;2023-09-19T10:27:31;0.95;;;0.30;;
23866;SDS011;12114;53.404;-1.502;2023-09-19T10:30:22;0.28;;;0.10;;
23866;SDS011;12114;53.404;-1.502;2023-09-19T10:33:06;1.33;;;0.10;;
23866;SDS011;12114;53.404;-1.502;2023-09-19T10:35:50;0.30;;;0.10;;
23866;SDS011;12114;53.404;-1.502;2023-09-19T10:38:40;2.92;;;0.10;;
23866;SDS011;12114;53.404;-1.502;2023-09-19T10:41:26;0.55;;;0.00;;
23866;SDS011;12114;53.404;-1.502;2023-09-19T10:44:12;0.38;;;0.20;;
23866;SDS011;12114;53.404;-1.502;2023-09-19T10:46:57;0.10;;;0.10;;
23866;SDS011;12114;53.404;-1.502;2023-09-19T10:49:45;0.38;;;0.00;;
23866;SDS011;12114;53.404;-1.502;2023-09-19T10:52:32;0.70;;;0.20;;
23866;SDS011;12114;53.404;-1.502;2023-09-19T10:55:18;0.90;;;0.10;;
23866;SDS011;12114;53.404;-1.502;2023-09-19T10:58:03;0.10;;;0.10;;
23866;SDS011;12114;53.404;-1.502;2023-09-19T11:00:58;1.80;;;0.10;;
23866;SDS011;12114;53.404;-1.502;2023-09-19T11:07:07;0.45;;;0.10;;
23866;SDS011;12114;53.404;-1.502;2023-09-19T11:09:55;0.28;;;0.10;;
23866;SDS011;12114;53.404;-1.502;2023-09-19T11:27:09;1.15;;;0.20;;
23866;SDS011;12114;53.404;-1.502;2023-09-19T11:30:04;2.17;;;0.13;;
23866;SDS011;12114;53.404;-1.502;2023-09-19T11:36:05;0.65;;;0.20;;
23866;SDS011;12114;53.404;-1.502;2023-09-19T11:41:36;0.90;;;0.25;;
23866;SDS011;12114;53.404;-1.502;2023-09-19T11:47:05;1.02;;;0.30;;
23866;SDS011;12114;53.404;-1.502;2023-09-19T11:49:49;1.50;;;0.20;;
23866;SDS011;12114;53.404;-1.502;2023-09-19T11:52:37;0.80;;;0.00;;
23866;SDS011;12114;53.404;-1.502;2023-09-19T11:55:21;0.57;;;0.10;;
23866;SDS011;12114;53.404;-1.502;2023-09-19T11:58:06;0.38;;;0.10;;
23866;SDS011;12114;53.404;-1.502;2023-09-19T12:00:54;1.43;;;0.10;;
23866;SDS011;12114;53.404;-1.502;2023-09-19T12:03:43;1.48;;;0.20;;
23866;SDS011;12114;53.404;-1.502;2023-09-19T12:06:31;2.05;;;0.13;;
23866;SDS011;12114;53.404;-1.502;2023-09-19T12:09:19;0.52;;;0.15;;
23866;SDS011;12114;53.404;-1.502;2023-09-19T12:12:04;1.77;;;0.20;;
23866;SDS011;12114;53.404;-1.502;2023-09-19T12:14:50;0.75;;;0.20;;
23866;SDS011;12114;53.404;-1.502;2023-09-19T12:17:37;1.85;;;0.20;;
23866;SDS011;12114;53.404;-1.502;2023-09-19T12:20:22;0.52;;;0.32;;
23866;SDS011;12114;53.404;-1.502;2023-09-19T12:23:12;0.25;;;0.10;;
23866;SDS011;12114;53.404;-1.502;2023-09-19T12:25:56;0.47;;;0.10;;
23866;SDS011;12114;53.404;-1.502;2023-09-19T12:28:43;1.40;;;0.10;;
23866;SDS011;12114;53.404;-1.502;2023-09-19T12:31:27;0.10;;;0.10;;
23866;SDS011;12114;53.404;-1.502;2023-09-19T12:34:11;0.63;;;0.17;;
23866;SDS011;12114;53.404;-1.502;2023-09-19T12:37:06;0.40;;;0.17;;
23866;SDS011;12114;53.404;-1.502;2023-09-19T12:40:03;2.00;;;0.20;;
23866;SDS011;12114;53.404;-1.502;2023-09-19T12:42:58;0.20;;;0.05;;
23866;SDS011;12114;53.404;-1.502;2023-09-19T12:45:42;0.03;;;0.00;;
23866;SDS011;12114;53.404;-1.502;2023-09-19T12:48:28;0.30;;;0.10;;
23866;SDS011;12114;53.404;-1.502;2023-09-19T12:51:17;0.85;;;0.20;;
23866;SDS011;12114;53.404;-1.502;2023-09-19T12:54:06;1.42;;;0.10;;
23866;SDS011;12114;53.404;-1.502;2023-09-19T12:56:50;1.33;;;0.20;;
23866;SDS011;12114;53.404;-1.502;2023-09-19T12:59:34;0.70;;;0.20;;
23866;SDS011;12114;53.404;-1.502;2023-09-19T13:02:19;2.80;;;0.35;;
23866;SDS011;12114;53.404;-1.502;2023-09-19T13:05:07;0.75;;;0.20;;
23866;SDS011;12114;53.404;-1.502;2023-09-19T13:07:53;1.20;;;0.20;;
23866;SDS011;12114;53.404;-1.502;2023-09-19T13:10:59;1.10;;;0.20;;
23866;SDS011;12114;53.404;-1.502;2023-09-19T13:13:43;0.50;;;0.17;;
23866;SDS011;12114;53.404;-1.502;2023-09-19T13:16:29;2.72;;;0.20;;
23866;SDS011;12114;53.404;-1.502;2023-09-19T13:19:13;0.63;;;0.20;;
23866;SDS011;12114;53.404;-1.502;2023-09-19T13:21:58;1.50;;;0.10;;
23866;SDS011;12114;53.404;-1.502;2023-09-19T13:24:42;1.02;;;0.20;;
23866;SDS011;12114;53.404;-1.502;2023-09-19T13:27:26;0.60;;;0.17;;
23866;SDS011;12114;53.404;-1.502;2023-09-19T13:30:11;1.00;;;0.20;;
23866;SDS011;12114;53.404;-1.502;2023-09-19T13:33:08;1.23;;;0.30;;
23866;SDS011;12114;53.404;-1.502;2023-09-19T13:35:53;1.60;;;0.55;;
23866;SDS011;12114;53.404;-1.502;2023-09-19T13:38:37;1.73;;;0.47;;
23866;SDS011;12114;53.404;-1.502;2023-09-19T13:41:21;5.28;;;0.40;;
23866;SDS011;12114;53.404;-1.502;2023-09-19T13:44:05;2.85;;;0.73;;
23866;SDS011;12114;53.404;-1.502;2023-09-19T13:46:50;3.78;;;0.50;;
23866;SDS011;12114;53.404;-1.502;2023-09-19T13:49:35;3.03;;;0.40;;
23866;SDS011;12114;53.404;-1.502;2023-09-19T13:52:20;4.93;;;0.35;;
23866;SDS011;12114;53.404;-1.502;2023-09-19T13:55:05;2.20;;;0.50;;
23866;SDS011;12114;53.404;-1.502;2023-09-19T13:57:50;4.90;;;0.60;;
23866;SDS011;12114;53.404;-1.502;2023-09-19T14:00:36;2.63;;;0.50;;
23866;SDS011;12114;53.404;-1.502;2023-09-19T14:03:20;1.90;;;0.57;;
23866;SDS011;12114;53.404;-1.502;2023-09-19T14:06:05;2.10;;;0.45;;
23866;SDS011;12114;53.404;-1.502;2023-09-19T14:08:49;2.25;;;0.50;;
23866;SDS011;12114;53.404;-1.502;2023-09-19T14:11:33;2.05;;;0.55;;
23866;SDS011;12114;53.404;-1.502;2023-09-19T14:14:17;3.22;;;0.40;;
23866;SDS011;12114;53.404;-1.502;2023-09-19T14:17:01;3.50;;;0.70;;
23866;SDS011;12114;53.404;-1.502;2023-09-19T14:19:45;2.97;;;0.70;;
23866;SDS011;12114;53.404;-1.502;2023-09-19T14:22:31;6.28;;;0.60;;
23866;SDS011;12114;53.404;-1.502;2023-09-19T14:25:14;2.30;;;0.70;;
23866;SDS011;12114;53.404;-1.502;2023-09-19T14:27:58;4.30;;;0.90;;
23866;SDS011;12114;53.404;-1.502;2023-09-19T14:30:42;4.22;;;1.08;;
23866;SDS011;12114;53.404;-1.502;2023-09-19T14:33:27;5.35;;;1.17;;
23866;SDS011;12114;53.404;-1.502;2023-09-19T14:36:11;4.82;;;1.17;;
23866;SDS011;12114;53.404;-1.502;2023-09-19T14:38:55;6.07;;;1.15;;
23866;SDS011;12114;53.404;-1.502;2023-09-19T14:41:39;5.47;;;1.23;;
23866;SDS011;12114;53.404;-1.502;2023-09-19T14:44:23;9.05;;;1.50;;
23866;SDS011;12114;53.404;-1.502;2023-09-19T14:47:07;6.50;;;1.60;;
23866;SDS011;12114;53.404;-1.502;2023-09-19T14:49:51;6.32;;;1.52;;
23866;SDS011;12114;53.404;-1.502;2023-09-19T14:52:35;7.95;;;1.75;;
23866;SDS011;12114;53.404;-1.502;2023-09-19T14:55:19;9.68;;;1.65;;
23866;SDS011;12114;53.404;-1.502;2023-09-19T14:58:03;12.52;;;2.10;;
23866;SDS011;12114;53.404;-1.502;2023-09-19T15:00:47;11.60;;;1.77;;
23866;SDS011;12114;53.404;-1.502;2023-09-19T15:03:32;13.10;;;1.80;;
23866;SDS011;12114;53.404;-1.502;2023-09-19T15:06:16;8.02;;;1.85;;
23866;SDS011;12114;53.404;-1.502;2023-09-19T15:09:00;13.07;;;1.92;;
23866;SDS011;12114;53.404;-1.502;2023-09-19T15:11:44;7.47;;;1.70;;
23866;SDS011;12114;53.404;-1.502;2023-09-19T15:14:28;15.43;;;3.05;;
23866;SDS011;12114;53.404;-1.502;2023-09-19T15:17:13;11.85;;;2.97;;
23866;SDS011;12114;53.404;-1.502;2023-09-19T15:19:57;13.75;;;3.10;;
23866;SDS011;12114;53.404;-1.502;2023-09-19T15:22:41;16.15;;;2.72;;
23866;SDS011;12114;53.404;-1.502;2023-09-19T15:25:26;10.85;;;2.60;;
23866;SDS011;12114;53.404;-1.502;2023-09-19T15:28:11;11.07;;;2.47;;
23866;SDS011;12114;53.404;-1.502;2023-09-19T15:31:01;13.00;;;2.35;;
23866;SDS011;12114;53.404;-1.502;2023-09-19T15:33:45;12.15;;;2.47;;
23866;SDS011;12114;53.404;-1.502;2023-09-19T15:36:29;14.48;;;2.83;;
23866;SDS011;12114;53.404;-1.502;2023-09-19T15:39:13;11.30;;;2.28;;
23866;SDS011;12114;53.404;-1.502;2023-09-19T15:41:58;10.75;;;2.28;;
23866;SDS011;12114;53.404;-1.502;2023-09-19T15:44:42;11.07;;;2.42;;
23866;SDS011;12114;53.404;-1.502;2023-09-19T15:47:28;10.02;;;2.00;;
23866;SDS011;12114;53.404;-1.502;2023-09-19T15:50:13;8.00;;;2.22;;
23866;SDS011;12114;53.404;-1.502;2023-09-19T15:52:58;9.55;;;1.67;;
23866;SDS011;12114;53.404;-1.502;2023-09-19T15:55:42;9.48;;;2.08;;
23866;SDS011;12114;53.404;-1.502;2023-09-19T15:58:27;7.97;;;1.95;;
23866;SDS011;12114;53.404;-1.502;2023-09-19T16:01:11;9.10;;;1.95;;
23866;SDS011;12114;53.404;-1.502;2023-09-19T16:03:55;7.57;;;1.55;;
23866;SDS011;12114;53.404;-1.502;2023-09-19T16:06:42;12.13;;;2.58;;
23866;SDS011;12114;53.404;-1.502;2023-09-19T16:09:26;9.57;;;1.90;;
23866;SDS011;12114;53.404;-1.502;2023-09-19T16:12:10;10.13;;;1.80;;
23866;SDS011;12114;53.404;-1.502;2023-09-19T16:14:55;7.05;;;1.75;;
23866;SDS011;12114;53.404;-1.502;2023-09-19T16:17:39;11.47;;;2.00;;
23866;SDS011;12114;53.404;-1.502;2023-09-19T16:20:23;7.18;;;1.60;;
23866;SDS011;12114;53.404;-1.502;2023-09-19T16:23:07;8.40;;;1.90;;
23866;SDS011;12114;53.404;-1.502;2023-09-19T16:26:00;9.00;;;1.73;;
23866;SDS011;12114;53.404;-1.502;2023-09-19T16:28:44;13.93;;;1.98;;
23866;SDS011;12114;53.404;-1.502;2023-09-19T16:31:28;9.07;;;1.60;;
23866;SDS011;12114;53.404;-1.502;2023-09-19T16:34:13;5.75;;;1.60;;
23866;SDS011;12114;53.404;-1.502;2023-09-19T16:36:57;6.70;;;1.50;;
23866;SDS011;12114;53.404;-1.502;2023-09-19T16:39:41;5.78;;;1.73;;
23866;SDS011;12114;53.404;-1.502;2023-09-19T16:42:25;5.40;;;1.13;;
23866;SDS011;12114;53.404;-1.502;2023-09-19T16:45:09;4.82;;;1.15;;
23866;SDS011;12114;53.404;-1.502;2023-09-19T16:47:56;5.65;;;1.30;;
23866;SDS011;12114;53.404;-1.502;2023-09-19T16:50:40;6.80;;;1.45;;
23866;SDS011;12114;53.404;-1.502;2023-09-19T16:53:25;6.93;;;1.55;;
23866;SDS011;12114;53.404;-1.502;2023-09-19T16:56:09;5.55;;;1.13;;
23866;SDS011;12114;53.404;-1.502;2023-09-19T16:58:54;7.30;;;1.30;;
23866;SDS011;12114;53.404;-1.502;2023-09-19T17:01:38;6.63;;;1.25;;
23866;SDS011;12114;53.404;-1.502;2023-09-19T17:04:22;5.20;;;1.27;;